sensor_id;sensor_type;location;lat;lon;timestamp;temperature;humidity
16253;DHT22;8234;41.480;2.306;2022-08-23T00:02:45;24.30;99.90
16253;DHT22;8234;41.480;2.306;2022-08-23T00:12:49;24.20;99.90
16253;DHT22;8234;41.480;2.306;2022-08-23T00:22:54;24.30;99.90
16253;DHT22;8234;41.480;2.306;2022-08-23T00:32:59;24.20;99.90
16253;DHT22;8234;41.480;2.306;2022-08-23T00:43:06;24.10;99.90
16253;DHT22;8234;41.480;2.306;2022-08-23T00:53:31;24.10;99.90
16253;DHT22;8234;41.480;2.306;2022-08-23T01:03:40;24.10;99.90
16253;DHT22;8234;41.480;2.306;2022-08-23T01:13:48;24.00;99.90
16253;DHT22;8234;41.480;2.306;2022-08-23T01:23:57;24.00;99.90
16253;DHT22;8234;41.480;2.306;2022-08-23T01:34:05;23.80;99.90
16253;DHT22;8234;41.480;2.306;2022-08-23T01:44:10;23.80;99.90
16253;DHT22;8234;41.480;2.306;2022-08-23T01:54:14;23.80;99.90
16253;DHT22;8234;41.480;2.306;2022-08-23T02:04:19;23.70;99.90
16253;DHT22;8234;41.480;2.306;2022-08-23T02:14:24;23.70;99.90
16253;DHT22;8234;41.480;2.306;2022-08-23T02:24:29;23.70;99.90
16253;DHT22;8234;41.480;2.306;2022-08-23T02:34:33;23.70;99.90
16253;DHT22;8234;41.480;2.306;2022-08-23T02:44:39;23.60;99.90
16253;DHT22;8234;41.480;2.306;2022-08-23T02:54:43;23.60;99.90
16253;DHT22;8234;41.480;2.306;2022-08-23T03:04:48;23.60;99.90
16253;DHT22;8234;41.480;2.306;2022-08-23T03:14:52;23.60;99.90
16253;DHT22;8234;41.480;2.306;2022-08-23T03:24:57;23.60;99.90
16253;DHT22;8234;41.480;2.306;2022-08-23T03:35:01;23.60;99.90
16253;DHT22;8234;41.480;2.306;2022-08-23T03:45:17;23.50;99.90
16253;DHT22;8234;41.480;2.306;2022-08-23T03:55:20;23.60;99.90
16253;DHT22;8234;41.480;2.306;2022-08-23T04:05:26;23.40;99.90
16253;DHT22;8234;41.480;2.306;2022-08-23T04:15:30;23.30;99.90
16253;DHT22;8234;41.480;2.306;2022-08-23T04:25:35;23.40;99.90
16253;DHT22;8234;41.480;2.306;2022-08-23T04:35:39;23.30;99.90
16253;DHT22;8234;41.480;2.306;2022-08-23T04:45:45;23.30;99.90
16253;DHT22;8234;41.480;2.306;2022-08-23T04:55:49;23.30;99.90
16253;DHT22;8234;41.480;2.306;2022-08-23T05:05:55;23.30;99.90
16253;DHT22;8234;41.480;2.306;2022-08-23T05:15:59;23.20;99.90
16253;DHT22;8234;41.480;2.306;2022-08-23T05:26:04;23.10;99.90
16253;DHT22;8234;41.480;2.306;2022-08-23T05:36:11;23.10;99.90
16253;DHT22;8234;41.480;2.306;2022-08-23T05:46:18;23.20;99.90
16253;DHT22;8234;41.480;2.306;2022-08-23T05:56:29;23.30;99.90
16253;DHT22;8234;41.480;2.306;2022-08-23T06:06:35;23.50;99.90
16253;DHT22;8234;41.480;2.306;2022-08-23T06:16:43;23.90;99.90
16253;DHT22;8234;41.480;2.306;2022-08-23T06:26:49;24.30;99.90
16253;DHT22;8234;41.480;2.306;2022-08-23T06:36:54;24.80;99.90
16253;DHT22;8234;41.480;2.306;2022-08-23T06:47:00;25.10;99.90
16253;DHT22;8234;41.480;2.306;2022-08-23T06:57:04;25.00;99.90
16253;DHT22;8234;41.480;2.306;2022-08-23T07:07:10;24.90;99.90
16253;DHT22;8234;41.480;2.306;2022-08-23T07:17:14;25.10;99.90
16253;DHT22;8234;41.480;2.306;2022-08-23T07:27:19;25.60;99.90
16253;DHT22;8234;41.480;2.306;2022-08-23T07:37:23;25.80;99.90
16253;DHT22;8234;41.480;2.306;2022-08-23T07:47:31;25.80;99.90
16253;DHT22;8234;41.480;2.306;2022-08-23T07:57:35;25.90;99.90
16253;DHT22;8234;41.480;2.306;2022-08-23T08:07:40;26.10;99.90
16253;DHT22;8234;41.480;2.306;2022-08-23T08:17:46;26.10;99.90
16253;DHT22;8234;41.480;2.306;2022-08-23T08:27:52;26.30;99.90
16253;DHT22;8234;41.480;2.306;2022-08-23T08:37:55;26.50;99.90
16253;DHT22;8234;41.480;2.306;2022-08-23T08:48:03;26.40;99.90
16253;DHT22;8234;41.480;2.306;2022-08-23T08:58:23;26.70;99.90
16253;DHT22;8234;41.480;2.306;2022-08-23T09:08:40;26.80;99.90
16253;DHT22;8234;41.480;2.306;2022-08-23T09:18:47;27.10;99.90
16253;DHT22;8234;41.480;2.306;2022-08-23T09:28:55;27.20;99.90
16253;DHT22;8234;41.480;2.306;2022-08-23T09:39:02;27.30;99.90
16253;DHT22;8234;41.480;2.306;2022-08-23T09:49:25;27.50;99.90
16253;DHT22;8234;41.480;2.306;2022-08-23T09:59:37;27.80;99.90
16253;DHT22;8234;41.480;2.306;2022-08-23T10:09:43;28.20;99.90
16253;DHT22;8234;41.480;2.306;2022-08-23T10:19:52;28.00;99.90
16253;DHT22;8234;41.480;2.306;2022-08-23T10:30:04;28.40;99.90
16253;DHT22;8234;41.480;2.306;2022-08-23T10:40:14;28.80;99.90
16253;DHT22;8234;41.480;2.306;2022-08-23T10:50:20;29.20;99.90
16253;DHT22;8234;41.480;2.306;2022-08-23T11:00:25;29.50;99.90
16253;DHT22;8234;41.480;2.306;2022-08-23T11:10:43;29.80;99.90
16253;DHT22;8234;41.480;2.306;2022-08-23T11:21:05;30.20;99.90
16253;DHT22;8234;41.480;2.306;2022-08-23T11:31:22;30.80;99.90
16253;DHT22;8234;41.480;2.306;2022-08-23T11:41:29;31.40;99.90
16253;DHT22;8234;41.480;2.306;2022-08-23T11:51:39;31.90;99.90
16253;DHT22;8234;41.480;2.306;2022-08-23T12:01:46;32.20;99.90
16253;DHT22;8234;41.480;2.306;2022-08-23T12:12:13;32.40;99.90
16253;DHT22;8234;41.480;2.306;2022-08-23T12:22:28;32.80;99.90
16253;DHT22;8234;41.480;2.306;2022-08-23T12:32:40;33.30;99.90
16253;DHT22;8234;41.480;2.306;2022-08-23T12:42:47;33.50;99.90
16253;DHT22;8234;41.480;2.306;2022-08-23T12:52:59;33.70;99.90
16253;DHT22;8234;41.480;2.306;2022-08-23T13:03:12;34.20;99.90
16253;DHT22;8234;41.480;2.306;2022-08-23T13:13:20;34.50;99.90
16253;DHT22;8234;41.480;2.306;2022-08-23T13:23:27;34.90;99.90
16253;DHT22;8234;41.480;2.306;2022-08-23T13:33:33;35.40;99.90
16253;DHT22;8234;41.480;2.306;2022-08-23T13:43:39;35.10;99.90
16253;DHT22;8234;41.480;2.306;2022-08-23T13:53:49;36.70;99.90
16253;DHT22;8234;41.480;2.306;2022-08-23T14:03:53;36.70;99.90
16253;DHT22;8234;41.480;2.306;2022-08-23T14:13:58;36.40;99.90
16253;DHT22;8234;41.480;2.306;2022-08-23T14:24:03;36.70;99.90
16253;DHT22;8234;41.480;2.306;2022-08-23T14:34:08;36.50;99.90
16253;DHT22;8234;41.480;2.306;2022-08-23T14:44:12;35.90;99.90
16253;DHT22;8234;41.480;2.306;2022-08-23T14:54:20;36.00;99.90
16253;DHT22;8234;41.480;2.306;2022-08-23T15:04:25;36.00;99.90
16253;DHT22;8234;41.480;2.306;2022-08-23T15:14:37;35.80;99.90
16253;DHT22;8234;41.480;2.306;2022-08-23T15:24:41;35.90;99.90
16253;DHT22;8234;41.480;2.306;2022-08-23T15:34:46;34.70;99.90
16253;DHT22;8234;41.480;2.306;2022-08-23T15:44:49;33.00;99.90
16253;DHT22;8234;41.480;2.306;2022-08-23T15:54:55;32.10;99.90
16253;DHT22;8234;41.480;2.306;2022-08-23T16:04:59;31.60;99.90
16253;DHT22;8234;41.480;2.306;2022-08-23T16:15:05;30.70;99.90
16253;DHT22;8234;41.480;2.306;2022-08-23T16:25:10;31.00;99.90
16253;DHT22;8234;41.480;2.306;2022-08-23T16:35:15;30.50;99.90
16253;DHT22;8234;41.480;2.306;2022-08-23T16:45:19;30.60;99.90
16253;DHT22;8234;41.480;2.306;2022-08-23T16:55:28;30.60;99.90
16253;DHT22;8234;41.480;2.306;2022-08-23T17:05:33;30.30;99.90
16253;DHT22;8234;41.480;2.306;2022-08-23T17:15:38;30.40;99.90
16253;DHT22;8234;41.480;2.306;2022-08-23T17:25:42;30.30;99.90
16253;DHT22;8234;41.480;2.306;2022-08-23T17:35:50;31.50;99.90
16253;DHT22;8234;41.480;2.306;2022-08-23T17:45:54;32.50;99.90
16253;DHT22;8234;41.480;2.306;2022-08-23T17:55:59;31.30;99.90
16253;DHT22;8234;41.480;2.306;2022-08-23T18:06:13;29.10;99.90
16253;DHT22;8234;41.480;2.306;2022-08-23T18:16:19;28.70;99.90
16253;DHT22;8234;41.480;2.306;2022-08-23T18:26:24;28.40;99.90
16253;DHT22;8234;41.480;2.306;2022-08-23T18:36:47;28.40;99.90
16253;DHT22;8234;41.480;2.306;2022-08-23T18:46:51;28.30;99.90
16253;DHT22;8234;41.480;2.306;2022-08-23T18:56:57;28.30;99.90
16253;DHT22;8234;41.480;2.306;2022-08-23T19:07:02;28.20;99.90
16253;DHT22;8234;41.480;2.306;2022-08-23T19:17:07;28.10;99.90
16253;DHT22;8234;41.480;2.306;2022-08-23T19:27:11;28.00;99.90
16253;DHT22;8234;41.480;2.306;2022-08-23T19:37:17;28.00;99.90
16253;DHT22;8234;41.480;2.306;2022-08-23T19:47:24;27.90;99.90
16253;DHT22;8234;41.480;2.306;2022-08-23T19:57:32;27.90;99.90
16253;DHT22;8234;41.480;2.306;2022-08-23T20:07:36;27.70;99.90
16253;DHT22;8234;41.480;2.306;2022-08-23T20:17:42;27.70;99.90
16253;DHT22;8234;41.480;2.306;2022-08-23T20:27:46;27.70;99.90
16253;DHT22;8234;41.480;2.306;2022-08-23T20:37:51;27.60;99.90
16253;DHT22;8234;41.480;2.306;2022-08-23T20:47:55;27.40;99.90
16253;DHT22;8234;41.480;2.306;2022-08-23T20:58:00;27.40;99.90
16253;DHT22;8234;41.480;2.306;2022-08-23T21:08:04;27.00;99.90
16253;DHT22;8234;41.480;2.306;2022-08-23T21:18:15;26.50;99.90
16253;DHT22;8234;41.480;2.306;2022-08-23T21:28:19;26.50;99.90
16253;DHT22;8234;41.480;2.306;2022-08-23T21:38:24;26.40;99.90
16253;DHT22;8234;41.480;2.306;2022-08-23T21:48:28;26.20;99.90
16253;DHT22;8234;41.480;2.306;2022-08-23T21:58:34;26.20;99.90
16253;DHT22;8234;41.480;2.306;2022-08-23T22:08:38;26.10;99.90
16253;DHT22;8234;41.480;2.306;2022-08-23T22:18:43;25.90;99.90
16253;DHT22;8234;41.480;2.306;2022-08-23T22:28:47;25.80;99.90
16253;DHT22;8234;41.480;2.306;2022-08-23T22:38:52;25.80;99.90
16253;DHT22;8234;41.480;2.306;2022-08-23T22:48:56;25.60;99.90
16253;DHT22;8234;41.480;2.306;2022-08-23T22:59:04;25.50;99.90
16253;DHT22;8234;41.480;2.306;2022-08-23T23:09:09;25.30;99.90
16253;DHT22;8234;41.480;2.306;2022-08-23T23:19:15;25.40;99.90
16253;DHT22;8234;41.480;2.306;2022-08-23T23:29:37;25.40;99.90
16253;DHT22;8234;41.480;2.306;2022-08-23T23:39:42;25.30;99.90
16253;DHT22;8234;41.480;2.306;2022-08-23T23:49:46;25.30;99.90
16253;DHT22;8234;41.480;2.306;2022-08-23T23:59:52;25.30;99.90
